Terminal Aerodrome Forecast
Issued by NWS Corpus Christi, TX

Home | Current Version | Previous Version | Text Only | Print | Product List | Glossary On
Versions: 1 2 3 4 5 6 7 8 9 10 11 12 13 14 15 16 17
000
FTUS44 KCRP 011515 AAA
TAFVCT
TAF AMD
KVCT 011515Z 0115/0212 18014KT P6SM VCTS SCT030CB BKN150
      TEMPO 0115/0119 VRB15G28KT 2SM TSRA BR BKN020CB
     FM012100 17015KT P6SM SCT035 SCT150
     FM020100 14007KT P6SM FEW020 SCT150
     FM020700 15005KT P6SM SCT012
      TEMPO 0209/0212 4SM BR BKN012=

USA.gov is the U.S. government's official web portal to all federal, state and local government web resources and services.